sensor_id;sensor_type;location;lat;lon;timestamp;temperature;humidity
51613;DHT22;37694;51.748;14.326;2023-02-01T00:01:44;22.10;38.10
51613;DHT22;37694;51.748;14.326;2023-02-01T00:04:10;22.10;38.00
51613;DHT22;37694;51.748;14.326;2023-02-01T00:06:35;22.10;38.10
51613;DHT22;37694;51.748;14.326;2023-02-01T00:09:01;22.10;38.10
51613;DHT22;37694;51.748;14.326;2023-02-01T00:11:27;22.00;38.00
51613;DHT22;37694;51.748;14.326;2023-02-01T00:13:53;22.00;38.10
51613;DHT22;37694;51.748;14.326;2023-02-01T00:16:27;22.00;38.00
51613;DHT22;37694;51.748;14.326;2023-02-01T00:19:14;22.00;38.10
51613;DHT22;37694;51.748;14.326;2023-02-01T00:21:40;22.00;38.10
51613;DHT22;37694;51.748;14.326;2023-02-01T00:24:06;21.90;38.20
51613;DHT22;37694;51.748;14.326;2023-02-01T00:26:41;21.90;38.10
51613;DHT22;37694;51.748;14.326;2023-02-01T00:29:12;21.90;38.10
51613;DHT22;37694;51.748;14.326;2023-02-01T00:31:38;21.90;38.20
51613;DHT22;37694;51.748;14.326;2023-02-01T00:34:04;21.90;38.10
51613;DHT22;37694;51.748;14.326;2023-02-01T00:36:29;21.90;38.10
51613;DHT22;37694;51.748;14.326;2023-02-01T00:38:55;21.80;38.10
51613;DHT22;37694;51.748;14.326;2023-02-01T00:41:22;21.80;38.10
51613;DHT22;37694;51.748;14.326;2023-02-01T00:43:48;21.80;38.20
51613;DHT22;37694;51.748;14.326;2023-02-01T00:46:16;21.80;38.20
51613;DHT22;37694;51.748;14.326;2023-02-01T00:48:42;21.80;38.20
51613;DHT22;37694;51.748;14.326;2023-02-01T00:51:11;21.80;38.20
51613;DHT22;37694;51.748;14.326;2023-02-01T00:53:37;21.70;38.20
51613;DHT22;37694;51.748;14.326;2023-02-01T00:56:03;21.70;38.30
51613;DHT22;37694;51.748;14.326;2023-02-01T00:58:30;21.70;38.20
51613;DHT22;37694;51.748;14.326;2023-02-01T01:03:29;21.70;38.20
51613;DHT22;37694;51.748;14.326;2023-02-01T01:05:59;21.70;38.20
51613;DHT22;37694;51.748;14.326;2023-02-01T01:08:25;21.60;38.20
51613;DHT22;37694;51.748;14.326;2023-02-01T01:10:51;21.60;38.10
51613;DHT22;37694;51.748;14.326;2023-02-01T01:13:17;21.60;38.20
51613;DHT22;37694;51.748;14.326;2023-02-01T01:15:43;21.60;38.10
51613;DHT22;37694;51.748;14.326;2023-02-01T01:18:08;21.60;38.20
51613;DHT22;37694;51.748;14.326;2023-02-01T01:20:37;21.60;38.20
51613;DHT22;37694;51.748;14.326;2023-02-01T01:23:03;21.60;38.20
51613;DHT22;37694;51.748;14.326;2023-02-01T01:25:30;21.60;38.20
51613;DHT22;37694;51.748;14.326;2023-02-01T01:27:55;21.60;38.30
51613;DHT22;37694;51.748;14.326;2023-02-01T01:30:21;21.50;38.20
51613;DHT22;37694;51.748;14.326;2023-02-01T01:32:47;21.50;38.20
51613;DHT22;37694;51.748;14.326;2023-02-01T01:35:13;21.50;38.30
51613;DHT22;37694;51.748;14.326;2023-02-01T01:37:39;21.50;38.30
51613;DHT22;37694;51.748;14.326;2023-02-01T01:40:06;21.50;38.30
51613;DHT22;37694;51.748;14.326;2023-02-01T01:42:41;21.50;38.40
51613;DHT22;37694;51.748;14.326;2023-02-01T01:45:32;21.40;38.20
51613;DHT22;37694;51.748;14.326;2023-02-01T01:48:02;21.40;38.20
51613;DHT22;37694;51.748;14.326;2023-02-01T01:50:33;21.40;38.40
51613;DHT22;37694;51.748;14.326;2023-02-01T01:53:03;21.40;38.30
51613;DHT22;37694;51.748;14.326;2023-02-01T01:55:33;21.40;38.30
51613;DHT22;37694;51.748;14.326;2023-02-01T01:58:05;21.40;38.40
51613;DHT22;37694;51.748;14.326;2023-02-01T02:00:31;21.30;38.30
51613;DHT22;37694;51.748;14.326;2023-02-01T02:03:03;21.30;38.30
51613;DHT22;37694;51.748;14.326;2023-02-01T02:05:31;21.30;38.30
51613;DHT22;37694;51.748;14.326;2023-02-01T02:07:59;21.30;38.40
51613;DHT22;37694;51.748;14.326;2023-02-01T02:10:27;21.30;38.40
51613;DHT22;37694;51.748;14.326;2023-02-01T02:13:14;21.30;38.40
51613;DHT22;37694;51.748;14.326;2023-02-01T02:16:04;21.20;38.40
51613;DHT22;37694;51.748;14.326;2023-02-01T02:21:40;21.20;38.30
51613;DHT22;37694;51.748;14.326;2023-02-01T02:33:03;21.20;38.40
51613;DHT22;37694;51.748;14.326;2023-02-01T02:38:18;21.10;38.30
51613;DHT22;37694;51.748;14.326;2023-02-01T02:40:53;21.10;38.30
51613;DHT22;37694;51.748;14.326;2023-02-01T02:43:32;21.10;38.40
51613;DHT22;37694;51.748;14.326;2023-02-01T02:46:40;21.10;38.30
51613;DHT22;37694;51.748;14.326;2023-02-01T02:49:42;21.10;38.30
51613;DHT22;37694;51.748;14.326;2023-02-01T02:52:15;21.00;38.40
51613;DHT22;37694;51.748;14.326;2023-02-01T02:55:03;21.00;38.40
51613;DHT22;37694;51.748;14.326;2023-02-01T02:57:36;21.00;38.40
51613;DHT22;37694;51.748;14.326;2023-02-01T03:00:24;21.00;38.40
51613;DHT22;37694;51.748;14.326;2023-02-01T03:03:08;21.00;38.40
51613;DHT22;37694;51.748;14.326;2023-02-01T03:05:52;21.00;38.40
51613;DHT22;37694;51.748;14.326;2023-02-01T03:08:20;21.00;38.50
51613;DHT22;37694;51.748;14.326;2023-02-01T03:16:09;20.90;38.40
51613;DHT22;37694;51.748;14.326;2023-02-01T03:21:43;20.90;38.40
51613;DHT22;37694;51.748;14.326;2023-02-01T03:24:12;20.90;38.40
51613;DHT22;37694;51.748;14.326;2023-02-01T03:26:42;20.90;38.40
51613;DHT22;37694;51.748;14.326;2023-02-01T03:29:16;20.90;38.40
51613;DHT22;37694;51.748;14.326;2023-02-01T03:31:43;20.90;38.40
51613;DHT22;37694;51.748;14.326;2023-02-01T03:34:11;20.80;38.30
51613;DHT22;37694;51.748;14.326;2023-02-01T03:36:42;20.90;38.40
51613;DHT22;37694;51.748;14.326;2023-02-01T03:39:14;20.80;38.40
51613;DHT22;37694;51.748;14.326;2023-02-01T03:47:25;20.80;38.40
51613;DHT22;37694;51.748;14.326;2023-02-01T03:50:03;20.80;38.40
51613;DHT22;37694;51.748;14.326;2023-02-01T03:55:04;20.80;38.40
51613;DHT22;37694;51.748;14.326;2023-02-01T03:57:33;20.80;38.40
51613;DHT22;37694;51.748;14.326;2023-02-01T04:00:09;20.80;38.40
51613;DHT22;37694;51.748;14.326;2023-02-01T04:02:39;20.80;38.40
51613;DHT22;37694;51.748;14.326;2023-02-01T04:05:05;20.70;38.40
51613;DHT22;37694;51.748;14.326;2023-02-01T04:07:31;20.70;38.40
51613;DHT22;37694;51.748;14.326;2023-02-01T04:09:57;20.70;38.40
51613;DHT22;37694;51.748;14.326;2023-02-01T04:12:23;20.70;38.40
51613;DHT22;37694;51.748;14.326;2023-02-01T04:14:48;20.70;38.80
51613;DHT22;37694;51.748;14.326;2023-02-01T04:17:14;20.70;38.50
51613;DHT22;37694;51.748;14.326;2023-02-01T04:19:40;20.70;38.50
51613;DHT22;37694;51.748;14.326;2023-02-01T04:22:05;20.70;38.50
51613;DHT22;37694;51.748;14.326;2023-02-01T04:24:31;20.70;38.40
51613;DHT22;37694;51.748;14.326;2023-02-01T04:26:56;20.70;38.20
51613;DHT22;37694;51.748;14.326;2023-02-01T04:29:22;20.70;38.20
51613;DHT22;37694;51.748;14.326;2023-02-01T04:31:48;20.70;38.20
51613;DHT22;37694;51.748;14.326;2023-02-01T04:34:15;20.70;38.10
51613;DHT22;37694;51.748;14.326;2023-02-01T04:36:41;20.70;38.10
51613;DHT22;37694;51.748;14.326;2023-02-01T04:39:09;20.80;38.30
51613;DHT22;37694;51.748;14.326;2023-02-01T04:41:34;20.80;38.30
51613;DHT22;37694;51.748;14.326;2023-02-01T04:44:00;20.80;38.30
51613;DHT22;37694;51.748;14.326;2023-02-01T04:46:26;20.90;38.30
51613;DHT22;37694;51.748;14.326;2023-02-01T04:48:51;20.90;38.20
51613;DHT22;37694;51.748;14.326;2023-02-01T04:51:17;21.00;38.20
51613;DHT22;37694;51.748;14.326;2023-02-01T04:53:44;21.00;38.20
51613;DHT22;37694;51.748;14.326;2023-02-01T04:56:09;21.10;38.10
51613;DHT22;37694;51.748;14.326;2023-02-01T04:58:35;21.20;38.00
51613;DHT22;37694;51.748;14.326;2023-02-01T05:01:05;21.30;37.90
51613;DHT22;37694;51.748;14.326;2023-02-01T05:03:34;21.40;37.90
51613;DHT22;37694;51.748;14.326;2023-02-01T05:06:00;21.50;37.90
51613;DHT22;37694;51.748;14.326;2023-02-01T05:08:26;21.50;37.80
51613;DHT22;37694;51.748;14.326;2023-02-01T05:10:54;21.60;37.80
51613;DHT22;37694;51.748;14.326;2023-02-01T05:13:19;21.70;37.60
51613;DHT22;37694;51.748;14.326;2023-02-01T05:16:03;21.80;37.60
51613;DHT22;37694;51.748;14.326;2023-02-01T05:18:29;21.90;37.60
51613;DHT22;37694;51.748;14.326;2023-02-01T05:20:55;21.90;37.50
51613;DHT22;37694;51.748;14.326;2023-02-01T05:23:20;22.00;37.40
51613;DHT22;37694;51.748;14.326;2023-02-01T05:25:46;22.10;37.20
51613;DHT22;37694;51.748;14.326;2023-02-01T05:28:12;22.20;37.20
51613;DHT22;37694;51.748;14.326;2023-02-01T05:30:38;22.30;37.10
51613;DHT22;37694;51.748;14.326;2023-02-01T05:33:04;22.40;37.10
51613;DHT22;37694;51.748;14.326;2023-02-01T05:35:30;22.50;37.00
51613;DHT22;37694;51.748;14.326;2023-02-01T05:37:55;22.50;36.90
51613;DHT22;37694;51.748;14.326;2023-02-01T05:40:21;22.60;37.00
51613;DHT22;37694;51.748;14.326;2023-02-01T05:42:47;22.60;36.90
51613;DHT22;37694;51.748;14.326;2023-02-01T05:45:13;22.70;36.80
51613;DHT22;37694;51.748;14.326;2023-02-01T05:47:38;22.80;36.80
51613;DHT22;37694;51.748;14.326;2023-02-01T05:50:05;22.90;36.80
51613;DHT22;37694;51.748;14.326;2023-02-01T05:52:31;22.90;37.50
51613;DHT22;37694;51.748;14.326;2023-02-01T05:54:57;23.00;36.60
51613;DHT22;37694;51.748;14.326;2023-02-01T05:57:23;23.00;36.60
51613;DHT22;37694;51.748;14.326;2023-02-01T05:59:48;23.10;36.60
51613;DHT22;37694;51.748;14.326;2023-02-01T06:02:17;23.10;36.50
51613;DHT22;37694;51.748;14.326;2023-02-01T06:04:43;23.20;36.60
51613;DHT22;37694;51.748;14.326;2023-02-01T06:07:09;23.30;36.60
51613;DHT22;37694;51.748;14.326;2023-02-01T06:09:36;23.30;36.40
51613;DHT22;37694;51.748;14.326;2023-02-01T06:12:03;23.40;36.40
51613;DHT22;37694;51.748;14.326;2023-02-01T06:14:29;23.40;36.40
51613;DHT22;37694;51.748;14.326;2023-02-01T06:16:55;23.40;36.20
51613;DHT22;37694;51.748;14.326;2023-02-01T06:19:21;23.50;36.30
51613;DHT22;37694;51.748;14.326;2023-02-01T06:21:47;23.50;36.50
51613;DHT22;37694;51.748;14.326;2023-02-01T06:24:13;23.60;36.70
51613;DHT22;37694;51.748;14.326;2023-02-01T06:26:39;23.60;36.60
51613;DHT22;37694;51.748;14.326;2023-02-01T06:29:06;23.70;37.10
51613;DHT22;37694;51.748;14.326;2023-02-01T06:31:32;23.60;36.90
51613;DHT22;37694;51.748;14.326;2023-02-01T06:33:58;23.70;37.00
51613;DHT22;37694;51.748;14.326;2023-02-01T06:36:23;23.70;37.10
51613;DHT22;37694;51.748;14.326;2023-02-01T06:38:49;23.60;37.40
51613;DHT22;37694;51.748;14.326;2023-02-01T06:41:15;23.70;37.80
51613;DHT22;37694;51.748;14.326;2023-02-01T06:43:41;23.70;37.70
51613;DHT22;37694;51.748;14.326;2023-02-01T06:46:11;23.70;37.80
51613;DHT22;37694;51.748;14.326;2023-02-01T06:48:37;23.70;37.70
51613;DHT22;37694;51.748;14.326;2023-02-01T06:51:02;23.70;37.80
51613;DHT22;37694;51.748;14.326;2023-02-01T06:53:28;23.60;37.60
51613;DHT22;37694;51.748;14.326;2023-02-01T06:55:56;23.60;37.60
51613;DHT22;37694;51.748;14.326;2023-02-01T06:58:22;23.60;37.60
51613;DHT22;37694;51.748;14.326;2023-02-01T07:00:48;23.60;37.70
51613;DHT22;37694;51.748;14.326;2023-02-01T07:03:14;23.60;37.70
51613;DHT22;37694;51.748;14.326;2023-02-01T07:05:40;23.60;38.20
51613;DHT22;37694;51.748;14.326;2023-02-01T07:08:05;23.50;37.90
51613;DHT22;37694;51.748;14.326;2023-02-01T07:10:31;23.40;37.90
51613;DHT22;37694;51.748;14.326;2023-02-01T07:12:57;23.50;38.20
51613;DHT22;37694;51.748;14.326;2023-02-01T07:15:23;23.40;37.60
51613;DHT22;37694;51.748;14.326;2023-02-01T07:17:49;23.40;38.70
51613;DHT22;37694;51.748;14.326;2023-02-01T07:20:15;23.40;38.10
51613;DHT22;37694;51.748;14.326;2023-02-01T07:22:41;23.40;38.30
51613;DHT22;37694;51.748;14.326;2023-02-01T07:25:07;23.30;38.50
51613;DHT22;37694;51.748;14.326;2023-02-01T07:27:36;23.30;38.10
51613;DHT22;37694;51.748;14.326;2023-02-01T07:30:03;23.30;38.00
51613;DHT22;37694;51.748;14.326;2023-02-01T07:32:30;23.30;37.80
51613;DHT22;37694;51.748;14.326;2023-02-01T07:34:56;23.20;37.70
51613;DHT22;37694;51.748;14.326;2023-02-01T07:37:22;23.20;37.60
51613;DHT22;37694;51.748;14.326;2023-02-01T07:39:50;23.20;37.60
51613;DHT22;37694;51.748;14.326;2023-02-01T07:42:16;23.20;37.70
51613;DHT22;37694;51.748;14.326;2023-02-01T07:44:42;23.10;37.60
51613;DHT22;37694;51.748;14.326;2023-02-01T07:47:07;23.10;37.50
51613;DHT22;37694;51.748;14.326;2023-02-01T07:49:33;23.00;37.50
51613;DHT22;37694;51.748;14.326;2023-02-01T07:51:59;23.10;37.50
51613;DHT22;37694;51.748;14.326;2023-02-01T07:54:24;23.00;37.60
51613;DHT22;37694;51.748;14.326;2023-02-01T07:56:50;23.00;37.70
51613;DHT22;37694;51.748;14.326;2023-02-01T07:59:15;23.00;37.70
51613;DHT22;37694;51.748;14.326;2023-02-01T08:01:41;22.90;37.70
51613;DHT22;37694;51.748;14.326;2023-02-01T08:04:11;22.90;37.60
51613;DHT22;37694;51.748;14.326;2023-02-01T08:06:37;22.90;37.60
51613;DHT22;37694;51.748;14.326;2023-02-01T08:09:05;22.90;37.60
51613;DHT22;37694;51.748;14.326;2023-02-01T08:11:31;22.90;37.70
51613;DHT22;37694;51.748;14.326;2023-02-01T08:13:58;22.90;37.80
51613;DHT22;37694;51.748;14.326;2023-02-01T08:16:24;22.80;37.50
51613;DHT22;37694;51.748;14.326;2023-02-01T08:18:51;22.80;37.60
51613;DHT22;37694;51.748;14.326;2023-02-01T08:21:22;22.80;37.70
51613;DHT22;37694;51.748;14.326;2023-02-01T08:23:48;22.70;37.40
51613;DHT22;37694;51.748;14.326;2023-02-01T08:26:25;22.70;37.70
51613;DHT22;37694;51.748;14.326;2023-02-01T08:28:59;22.70;37.40
51613;DHT22;37694;51.748;14.326;2023-02-01T08:31:27;22.70;37.50
51613;DHT22;37694;51.748;14.326;2023-02-01T08:33:56;22.60;37.70
51613;DHT22;37694;51.748;14.326;2023-02-01T08:36:23;22.60;37.60
51613;DHT22;37694;51.748;14.326;2023-02-01T08:38:49;22.60;37.50
51613;DHT22;37694;51.748;14.326;2023-02-01T08:41:18;22.60;37.70
51613;DHT22;37694;51.748;14.326;2023-02-01T08:43:45;22.60;37.70
51613;DHT22;37694;51.748;14.326;2023-02-01T08:46:11;22.50;37.70
51613;DHT22;37694;51.748;14.326;2023-02-01T08:48:37;22.50;37.80
51613;DHT22;37694;51.748;14.326;2023-02-01T08:51:05;22.50;37.80
51613;DHT22;37694;51.748;14.326;2023-02-01T08:53:31;22.50;37.70
51613;DHT22;37694;51.748;14.326;2023-02-01T08:55:56;22.40;37.60
51613;DHT22;37694;51.748;14.326;2023-02-01T08:58:22;22.40;37.80
51613;DHT22;37694;51.748;14.326;2023-02-01T09:00:49;22.40;37.70
51613;DHT22;37694;51.748;14.326;2023-02-01T09:03:15;22.40;37.80
51613;DHT22;37694;51.748;14.326;2023-02-01T09:05:40;22.40;37.80
51613;DHT22;37694;51.748;14.326;2023-02-01T09:08:06;22.30;37.70
51613;DHT22;37694;51.748;14.326;2023-02-01T09:10:32;22.30;37.70
51613;DHT22;37694;51.748;14.326;2023-02-01T09:12:58;22.30;37.60
51613;DHT22;37694;51.748;14.326;2023-02-01T09:15:24;22.30;37.50
51613;DHT22;37694;51.748;14.326;2023-02-01T09:17:50;22.30;37.70
51613;DHT22;37694;51.748;14.326;2023-02-01T09:20:16;22.30;37.70
51613;DHT22;37694;51.748;14.326;2023-02-01T09:22:41;22.20;37.60
51613;DHT22;37694;51.748;14.326;2023-02-01T09:25:08;22.20;37.70
51613;DHT22;37694;51.748;14.326;2023-02-01T09:27:34;22.20;37.80
51613;DHT22;37694;51.748;14.326;2023-02-01T09:30:00;22.20;37.70
51613;DHT22;37694;51.748;14.326;2023-02-01T09:32:26;22.10;37.60
51613;DHT22;37694;51.748;14.326;2023-02-01T09:34:52;22.10;37.80
51613;DHT22;37694;51.748;14.326;2023-02-01T09:37:19;22.10;37.70
51613;DHT22;37694;51.748;14.326;2023-02-01T09:39:44;22.10;37.60
51613;DHT22;37694;51.748;14.326;2023-02-01T09:47:32;22.00;37.60
51613;DHT22;37694;51.748;14.326;2023-02-01T09:52:36;22.00;37.70
51613;DHT22;37694;51.748;14.326;2023-02-01T09:55:09;21.90;37.70
51613;DHT22;37694;51.748;14.326;2023-02-01T09:57:53;22.00;37.80
51613;DHT22;37694;51.748;14.326;2023-02-01T10:00:24;22.00;37.80
51613;DHT22;37694;51.748;14.326;2023-02-01T10:02:51;21.90;37.70
51613;DHT22;37694;51.748;14.326;2023-02-01T10:10:47;21.90;37.70
51613;DHT22;37694;51.748;14.326;2023-02-01T10:13:43;21.90;37.80
51613;DHT22;37694;51.748;14.326;2023-02-01T10:16:44;21.90;37.70
51613;DHT22;37694;51.748;14.326;2023-02-01T10:20:11;21.80;37.70
51613;DHT22;37694;51.748;14.326;2023-02-01T10:22:43;21.80;37.70
51613;DHT22;37694;51.748;14.326;2023-02-01T10:27:44;21.80;37.70
51613;DHT22;37694;51.748;14.326;2023-02-01T10:30:24;21.70;37.60
51613;DHT22;37694;51.748;14.326;2023-02-01T10:32:55;21.70;37.70
51613;DHT22;37694;51.748;14.326;2023-02-01T10:35:29;21.70;37.80
51613;DHT22;37694;51.748;14.326;2023-02-01T10:38:00;21.70;37.80
51613;DHT22;37694;51.748;14.326;2023-02-01T10:40:27;21.70;37.70
51613;DHT22;37694;51.748;14.326;2023-02-01T10:43:01;21.70;37.70
51613;DHT22;37694;51.748;14.326;2023-02-01T10:45:30;21.70;37.70
51613;DHT22;37694;51.748;14.326;2023-02-01T10:47:59;21.60;37.70
51613;DHT22;37694;51.748;14.326;2023-02-01T10:50:39;21.60;37.70
51613;DHT22;37694;51.748;14.326;2023-02-01T10:53:19;21.60;37.80
51613;DHT22;37694;51.748;14.326;2023-02-01T10:55:53;21.60;37.60
51613;DHT22;37694;51.748;14.326;2023-02-01T10:58:27;21.60;38.60
51613;DHT22;37694;51.748;14.326;2023-02-01T11:06:37;21.60;37.70
51613;DHT22;37694;51.748;14.326;2023-02-01T11:14:39;21.50;37.80
51613;DHT22;37694;51.748;14.326;2023-02-01T11:20:12;21.50;37.80
51613;DHT22;37694;51.748;14.326;2023-02-01T11:22:48;21.50;37.80
51613;DHT22;37694;51.748;14.326;2023-02-01T11:25:16;21.50;37.90
51613;DHT22;37694;51.748;14.326;2023-02-01T11:27:42;21.50;37.90
51613;DHT22;37694;51.748;14.326;2023-02-01T11:30:16;21.50;37.90
51613;DHT22;37694;51.748;14.326;2023-02-01T11:32:46;21.50;37.90
51613;DHT22;37694;51.748;14.326;2023-02-01T11:35:17;21.50;37.90
51613;DHT22;37694;51.748;14.326;2023-02-01T11:37:43;21.50;37.90
51613;DHT22;37694;51.748;14.326;2023-02-01T11:42:57;21.40;37.80
51613;DHT22;37694;51.748;14.326;2023-02-01T11:45:32;21.40;37.80
51613;DHT22;37694;51.748;14.326;2023-02-01T11:48:08;21.40;37.80
51613;DHT22;37694;51.748;14.326;2023-02-01T12:06:57;21.40;37.90
51613;DHT22;37694;51.748;14.326;2023-02-01T12:12:06;21.40;37.90
51613;DHT22;37694;51.748;14.326;2023-02-01T12:25:26;21.40;37.90
51613;DHT22;37694;51.748;14.326;2023-02-01T12:35:58;21.40;37.90
51613;DHT22;37694;51.748;14.326;2023-02-01T12:38:51;21.30;37.80
51613;DHT22;37694;51.748;14.326;2023-02-01T12:44:39;21.30;37.90
51613;DHT22;37694;51.748;14.326;2023-02-01T12:47:28;21.30;37.90
51613;DHT22;37694;51.748;14.326;2023-02-01T12:50:05;21.30;37.90
51613;DHT22;37694;51.748;14.326;2023-02-01T12:52:49;21.20;37.80
51613;DHT22;37694;51.748;14.326;2023-02-01T12:55:55;21.20;37.90
51613;DHT22;37694;51.748;14.326;2023-02-01T13:03:36;21.20;37.80
51613;DHT22;37694;51.748;14.326;2023-02-01T13:06:17;21.20;37.90
51613;DHT22;37694;51.748;14.326;2023-02-01T13:09:00;21.20;37.90
51613;DHT22;37694;51.748;14.326;2023-02-01T13:11:41;21.20;37.90
51613;DHT22;37694;51.748;14.326;2023-02-01T13:17:03;21.20;37.90
51613;DHT22;37694;51.748;14.326;2023-02-01T13:25:02;21.20;38.00
51613;DHT22;37694;51.748;14.326;2023-02-01T13:27:29;21.10;38.00
51613;DHT22;37694;51.748;14.326;2023-02-01T13:33:03;21.20;37.90
51613;DHT22;37694;51.748;14.326;2023-02-01T13:39:08;21.20;37.80
51613;DHT22;37694;51.748;14.326;2023-02-01T13:41:42;21.20;37.90
51613;DHT22;37694;51.748;14.326;2023-02-01T13:44:28;21.20;37.90
51613;DHT22;37694;51.748;14.326;2023-02-01T13:46:57;21.20;37.80
51613;DHT22;37694;51.748;14.326;2023-02-01T13:49:28;21.20;37.90
51613;DHT22;37694;51.748;14.326;2023-02-01T13:51:56;21.20;37.80
51613;DHT22;37694;51.748;14.326;2023-02-01T13:54:32;21.20;37.90
51613;DHT22;37694;51.748;14.326;2023-02-01T13:57:00;21.20;37.80
51613;DHT22;37694;51.748;14.326;2023-02-01T14:05:57;21.20;37.70
51613;DHT22;37694;51.748;14.326;2023-02-01T14:10:54;21.10;37.80
51613;DHT22;37694;51.748;14.326;2023-02-01T14:13:33;21.20;37.80
51613;DHT22;37694;51.748;14.326;2023-02-01T14:23:56;21.10;37.80
51613;DHT22;37694;51.748;14.326;2023-02-01T14:32:06;21.00;37.80
51613;DHT22;37694;51.748;14.326;2023-02-01T14:37:11;21.00;38.00
51613;DHT22;37694;51.748;14.326;2023-02-01T15:00:55;20.90;38.00
51613;DHT22;37694;51.748;14.326;2023-02-01T15:06:01;20.90;38.00
51613;DHT22;37694;51.748;14.326;2023-02-01T15:08:38;20.90;38.10
51613;DHT22;37694;51.748;14.326;2023-02-01T15:11:11;20.90;38.00
51613;DHT22;37694;51.748;14.326;2023-02-01T15:13:38;20.90;38.00
51613;DHT22;37694;51.748;14.326;2023-02-01T15:16:16;20.80;38.10
51613;DHT22;37694;51.748;14.326;2023-02-01T15:18:42;20.80;38.00
51613;DHT22;37694;51.748;14.326;2023-02-01T15:21:22;20.90;38.00
51613;DHT22;37694;51.748;14.326;2023-02-01T15:23:48;20.80;37.80
51613;DHT22;37694;51.748;14.326;2023-02-01T15:26:34;20.80;38.20
51613;DHT22;37694;51.748;14.326;2023-02-01T15:29:00;20.80;38.40
51613;DHT22;37694;51.748;14.326;2023-02-01T15:31:52;20.90;38.40
51613;DHT22;37694;51.748;14.326;2023-02-01T15:34:19;21.10;38.50
51613;DHT22;37694;51.748;14.326;2023-02-01T15:36:46;21.10;38.50
51613;DHT22;37694;51.748;14.326;2023-02-01T15:39:19;21.30;38.60
51613;DHT22;37694;51.748;14.326;2023-02-01T15:41:58;21.40;38.70
51613;DHT22;37694;51.748;14.326;2023-02-01T15:46:58;21.60;38.60
51613;DHT22;37694;51.748;14.326;2023-02-01T15:49:32;21.70;38.70
51613;DHT22;37694;51.748;14.326;2023-02-01T15:52:01;21.80;38.70
51613;DHT22;37694;51.748;14.326;2023-02-01T15:57:03;22.00;38.60
51613;DHT22;37694;51.748;14.326;2023-02-01T15:59:44;22.10;38.60
51613;DHT22;37694;51.748;14.326;2023-02-01T16:04:50;22.30;39.00
51613;DHT22;37694;51.748;14.326;2023-02-01T16:07:27;22.30;38.70
51613;DHT22;37694;51.748;14.326;2023-02-01T16:09:55;22.50;39.30
51613;DHT22;37694;51.748;14.326;2023-02-01T16:12:34;22.50;39.00
51613;DHT22;37694;51.748;14.326;2023-02-01T16:15:03;22.60;39.30
51613;DHT22;37694;51.748;14.326;2023-02-01T16:17:29;22.70;39.30
51613;DHT22;37694;51.748;14.326;2023-02-01T16:19:55;22.80;39.00
51613;DHT22;37694;51.748;14.326;2023-02-01T16:22:22;22.80;38.90
51613;DHT22;37694;51.748;14.326;2023-02-01T16:24:48;22.90;39.00
51613;DHT22;37694;51.748;14.326;2023-02-01T16:27:13;23.00;38.90
51613;DHT22;37694;51.748;14.326;2023-02-01T16:29:39;23.00;38.70
51613;DHT22;37694;51.748;14.326;2023-02-01T16:32:05;23.00;38.70
51613;DHT22;37694;51.748;14.326;2023-02-01T16:34:31;23.10;38.80
51613;DHT22;37694;51.748;14.326;2023-02-01T16:36:58;23.10;38.90
51613;DHT22;37694;51.748;14.326;2023-02-01T16:39:24;23.10;38.90
51613;DHT22;37694;51.748;14.326;2023-02-01T16:41:50;23.10;38.80
51613;DHT22;37694;51.748;14.326;2023-02-01T16:44:16;23.20;38.90
51613;DHT22;37694;51.748;14.326;2023-02-01T16:46:44;23.10;38.90
51613;DHT22;37694;51.748;14.326;2023-02-01T16:49:24;23.10;38.80
51613;DHT22;37694;51.748;14.326;2023-02-01T16:51:51;23.10;38.70
51613;DHT22;37694;51.748;14.326;2023-02-01T16:54:20;23.10;38.70
51613;DHT22;37694;51.748;14.326;2023-02-01T16:56:46;23.10;38.70
51613;DHT22;37694;51.748;14.326;2023-02-01T16:59:12;23.00;38.60
51613;DHT22;37694;51.748;14.326;2023-02-01T17:01:39;23.00;38.70
51613;DHT22;37694;51.748;14.326;2023-02-01T17:04:08;23.00;38.60
51613;DHT22;37694;51.748;14.326;2023-02-01T17:06:35;23.00;38.70
51613;DHT22;37694;51.748;14.326;2023-02-01T17:09:02;23.00;39.00
51613;DHT22;37694;51.748;14.326;2023-02-01T17:11:29;23.00;38.70
51613;DHT22;37694;51.748;14.326;2023-02-01T17:13:57;23.00;38.60
51613;DHT22;37694;51.748;14.326;2023-02-01T17:16:30;23.10;38.50
51613;DHT22;37694;51.748;14.326;2023-02-01T17:19:03;23.20;38.40
51613;DHT22;37694;51.748;14.326;2023-02-01T17:21:38;23.20;38.30
51613;DHT22;37694;51.748;14.326;2023-02-01T17:24:04;23.30;38.30
51613;DHT22;37694;51.748;14.326;2023-02-01T17:26:30;23.40;38.20
51613;DHT22;37694;51.748;14.326;2023-02-01T17:28:55;23.40;38.00
51613;DHT22;37694;51.748;14.326;2023-02-01T17:31:22;23.50;37.90
51613;DHT22;37694;51.748;14.326;2023-02-01T17:33:48;23.60;37.90
51613;DHT22;37694;51.748;14.326;2023-02-01T17:36:16;23.60;37.80
51613;DHT22;37694;51.748;14.326;2023-02-01T17:38:42;23.70;37.90
51613;DHT22;37694;51.748;14.326;2023-02-01T17:41:12;23.70;37.90
51613;DHT22;37694;51.748;14.326;2023-02-01T17:43:38;23.80;38.40
51613;DHT22;37694;51.748;14.326;2023-02-01T17:46:11;23.90;38.00
51613;DHT22;37694;51.748;14.326;2023-02-01T17:48:37;23.90;37.90
51613;DHT22;37694;51.748;14.326;2023-02-01T17:51:04;23.90;38.10
51613;DHT22;37694;51.748;14.326;2023-02-01T17:53:30;24.00;38.10
51613;DHT22;37694;51.748;14.326;2023-02-01T17:55:55;24.00;38.10
51613;DHT22;37694;51.748;14.326;2023-02-01T17:58:24;24.00;38.10
51613;DHT22;37694;51.748;14.326;2023-02-01T18:00:57;24.10;38.00
51613;DHT22;37694;51.748;14.326;2023-02-01T18:03:28;24.10;38.00
51613;DHT22;37694;51.748;14.326;2023-02-01T18:05:56;24.00;37.80
51613;DHT22;37694;51.748;14.326;2023-02-01T18:08:26;24.00;38.10
51613;DHT22;37694;51.748;14.326;2023-02-01T18:10:57;24.10;37.90
51613;DHT22;37694;51.748;14.326;2023-02-01T18:13:31;24.10;37.90
51613;DHT22;37694;51.748;14.326;2023-02-01T18:15:57;24.00;37.90
51613;DHT22;37694;51.748;14.326;2023-02-01T18:18:24;24.10;38.00
51613;DHT22;37694;51.748;14.326;2023-02-01T18:20:50;24.10;38.00
51613;DHT22;37694;51.748;14.326;2023-02-01T18:23:22;24.00;38.00
51613;DHT22;37694;51.748;14.326;2023-02-01T18:25:49;24.00;37.90
51613;DHT22;37694;51.748;14.326;2023-02-01T18:28:16;24.00;38.10
51613;DHT22;37694;51.748;14.326;2023-02-01T18:30:44;23.90;37.90
51613;DHT22;37694;51.748;14.326;2023-02-01T18:33:12;24.00;38.00
51613;DHT22;37694;51.748;14.326;2023-02-01T18:35:38;23.90;37.80